sensor_id;sensor_type;location;lat;lon;timestamp;pressure;altitude;pressure_sealevel;temperature;humidity
37020;BME280;22932;52.442;16.896;2022-11-11T07:57:49;101768.85;;;8.13;87.80
37020;BME280;22932;52.442;16.896;2022-11-11T08:00:20;101767.39;;;8.16;87.68
37020;BME280;22932;52.442;16.896;2022-11-11T08:02:50;101770.48;;;8.19;87.64
37020;BME280;22932;52.442;16.896;2022-11-11T08:05:19;101776.52;;;8.22;87.60
37020;BME280;22932;52.442;16.896;2022-11-11T08:07:49;101777.73;;;8.26;87.44
37020;BME280;22932;52.442;16.896;2022-11-11T08:10:18;101779.92;;;8.29;87.42
37020;BME280;22932;52.442;16.896;2022-11-11T08:12:54;101773.50;;;8.31;87.32
37020;BME280;22932;52.442;16.896;2022-11-11T08:15:41;101778.08;;;8.33;87.25
37020;BME280;22932;52.442;16.896;2022-11-11T08:18:11;101781.35;;;8.35;87.20
37020;BME280;22932;52.442;16.896;2022-11-11T08:20:40;101772.56;;;8.38;87.37
37020;BME280;22932;52.442;16.896;2022-11-11T08:23:10;101772.61;;;8.40;87.24
37020;BME280;22932;52.442;16.896;2022-11-11T08:25:41;101785.15;;;8.44;87.19
37020;BME280;22932;52.442;16.896;2022-11-11T08:28:11;101793.76;;;8.47;87.24
37020;BME280;22932;52.442;16.896;2022-11-11T08:30:40;101797.54;;;8.50;87.08
37020;BME280;22932;52.442;16.896;2022-11-11T08:33:10;101800.11;;;8.52;87.07
37020;BME280;22932;52.442;16.896;2022-11-11T08:35:40;101802.14;;;8.54;87.12
37020;BME280;22932;52.442;16.896;2022-11-11T08:38:09;101800.09;;;8.55;86.91
37020;BME280;22932;52.442;16.896;2022-11-11T08:40:40;101806.55;;;8.55;86.79
37020;BME280;22932;52.442;16.896;2022-11-11T08:43:09;101810.91;;;8.57;86.81
37020;BME280;22932;52.442;16.896;2022-11-11T08:45:39;101809.65;;;8.60;86.89
37020;BME280;22932;52.442;16.896;2022-11-11T08:48:09;101812.72;;;8.63;86.83
37020;BME280;22932;52.442;16.896;2022-11-11T08:50:40;101816.70;;;8.66;86.76
37020;BME280;22932;52.442;16.896;2022-11-11T08:53:10;101818.20;;;8.67;86.69
37020;BME280;22932;52.442;16.896;2022-11-11T08:55:39;101821.22;;;8.71;86.69
37020;BME280;22932;52.442;16.896;2022-11-11T08:58:11;101822.27;;;8.74;86.68
37020;BME280;22932;52.442;16.896;2022-11-11T09:00:41;101824.79;;;8.77;86.66
37020;BME280;22932;52.442;16.896;2022-11-11T09:03:12;101829.85;;;8.80;86.65
37020;BME280;22932;52.442;16.896;2022-11-11T09:05:42;101830.50;;;8.83;86.52
37020;BME280;22932;52.442;16.896;2022-11-11T09:08:14;101829.44;;;8.86;86.45
37020;BME280;22932;52.442;16.896;2022-11-11T09:10:43;101826.89;;;8.90;86.42
37020;BME280;22932;52.442;16.896;2022-11-11T09:13:13;101823.98;;;8.93;86.38
37020;BME280;22932;52.442;16.896;2022-11-11T09:15:42;101822.33;;;8.97;86.28
37020;BME280;22932;52.442;16.896;2022-11-11T09:18:12;101830.64;;;9.02;86.35
37020;BME280;22932;52.442;16.896;2022-11-11T09:20:41;101830.13;;;9.07;86.25
37020;BME280;22932;52.442;16.896;2022-11-11T09:23:11;101839.57;;;9.11;86.19
37020;BME280;22932;52.442;16.896;2022-11-11T09:25:40;101838.82;;;9.14;85.89
37020;BME280;22932;52.442;16.896;2022-11-11T09:28:09;101843.41;;;9.19;85.99
37020;BME280;22932;52.442;16.896;2022-11-11T09:30:40;101844.59;;;9.23;85.89
37020;BME280;22932;52.442;16.896;2022-11-11T09:33:09;101848.80;;;9.25;85.70
37020;BME280;22932;52.442;16.896;2022-11-11T09:35:39;101844.75;;;9.26;85.61
37020;BME280;22932;52.442;16.896;2022-11-11T09:38:09;101846.45;;;9.28;85.74
37020;BME280;22932;52.442;16.896;2022-11-11T09:40:49;101849.98;;;9.29;85.46
37020;BME280;22932;52.442;16.896;2022-11-11T09:43:29;101850.92;;;9.31;85.45
37020;BME280;22932;52.442;16.896;2022-11-11T09:46:36;101847.02;;;9.33;85.49
37020;BME280;22932;52.442;16.896;2022-11-11T09:49:24;101847.70;;;9.36;85.47
37020;BME280;22932;52.442;16.896;2022-11-11T09:52:00;101847.47;;;9.40;85.45
37020;BME280;22932;52.442;16.896;2022-11-11T09:54:35;101844.34;;;9.44;85.37
37020;BME280;22932;52.442;16.896;2022-11-11T09:57:13;101838.29;;;9.49;85.45
37020;BME280;22932;52.442;16.896;2022-11-11T09:59:46;101836.03;;;9.53;85.36
37020;BME280;22932;52.442;16.896;2022-11-11T10:02:27;101842.41;;;9.57;85.27
37020;BME280;22932;52.442;16.896;2022-11-11T10:05:07;101844.88;;;9.61;85.05
37020;BME280;22932;52.442;16.896;2022-11-11T10:07:40;101836.77;;;9.64;84.91
37020;BME280;22932;52.442;16.896;2022-11-11T10:10:22;101825.19;;;9.68;84.80
37020;BME280;22932;52.442;16.896;2022-11-11T10:12:57;101820.86;;;9.74;84.86
37020;BME280;22932;52.442;16.896;2022-11-11T10:15:32;101818.08;;;9.78;84.64
37020;BME280;22932;52.442;16.896;2022-11-11T10:18:21;101820.28;;;9.82;84.43
37020;BME280;22932;52.442;16.896;2022-11-11T10:20:56;101814.92;;;9.87;84.21
37020;BME280;22932;52.442;16.896;2022-11-11T10:23:30;101807.06;;;9.92;84.27
37020;BME280;22932;52.442;16.896;2022-11-11T10:26:03;101804.14;;;9.98;84.23
37020;BME280;22932;52.442;16.896;2022-11-11T10:28:36;101810.80;;;10.03;84.15
37020;BME280;22932;52.442;16.896;2022-11-11T10:31:12;101809.38;;;10.08;83.95
37020;BME280;22932;52.442;16.896;2022-11-11T10:33:47;101805.55;;;10.15;83.89
37020;BME280;22932;52.442;16.896;2022-11-11T10:36:19;101801.65;;;10.19;83.56
37020;BME280;22932;52.442;16.896;2022-11-11T10:38:55;101800.52;;;10.25;83.45
37020;BME280;22932;52.442;16.896;2022-11-11T10:41:30;101794.52;;;10.31;83.32
37020;BME280;22932;52.442;16.896;2022-11-11T10:44:13;101798.49;;;10.40;83.12
37020;BME280;22932;52.442;16.896;2022-11-11T10:46:52;101795.47;;;10.47;82.91
37020;BME280;22932;52.442;16.896;2022-11-11T10:49:26;101796.58;;;10.54;82.86
37020;BME280;22932;52.442;16.896;2022-11-11T10:52:03;101800.16;;;10.60;82.57
37020;BME280;22932;52.442;16.896;2022-11-11T10:54:39;101802.30;;;10.65;82.35
37020;BME280;22932;52.442;16.896;2022-11-11T10:57:14;101800.02;;;10.69;82.08
37020;BME280;22932;52.442;16.896;2022-11-11T10:59:51;101800.81;;;10.74;81.99
37020;BME280;22932;52.442;16.896;2022-11-11T11:02:25;101801.35;;;10.76;81.67
37020;BME280;22932;52.442;16.896;2022-11-11T11:05:00;101807.27;;;10.76;81.30
37020;BME280;22932;52.442;16.896;2022-11-11T11:07:36;101802.03;;;10.76;81.27
37020;BME280;22932;52.442;16.896;2022-11-11T11:10:13;101800.18;;;10.77;81.32
37020;BME280;22932;52.442;16.896;2022-11-11T11:12:48;101803.86;;;10.79;81.28
37020;BME280;22932;52.442;16.896;2022-11-11T11:15:22;101800.39;;;10.80;81.02
37020;BME280;22932;52.442;16.896;2022-11-11T11:18:02;101795.55;;;10.79;80.90
37020;BME280;22932;52.442;16.896;2022-11-11T11:20:33;101800.33;;;10.80;80.99
37020;BME280;22932;52.442;16.896;2022-11-11T11:23:02;101794.51;;;10.81;80.92
37020;BME280;22932;52.442;16.896;2022-11-11T11:25:32;101797.19;;;10.82;80.76
37020;BME280;22932;52.442;16.896;2022-11-11T11:28:11;101799.69;;;10.82;80.56
37020;BME280;22932;52.442;16.896;2022-11-11T11:30:41;101795.02;;;10.82;80.57
37020;BME280;22932;52.442;16.896;2022-11-11T11:33:26;101792.64;;;10.82;80.49
37020;BME280;22932;52.442;16.896;2022-11-11T11:35:55;101793.60;;;10.84;80.52
37020;BME280;22932;52.442;16.896;2022-11-11T11:38:40;101789.08;;;10.87;80.40
37020;BME280;22932;52.442;16.896;2022-11-11T11:41:10;101790.52;;;10.89;80.28
37020;BME280;22932;52.442;16.896;2022-11-11T11:43:40;101788.58;;;10.91;80.23
37020;BME280;22932;52.442;16.896;2022-11-11T11:46:15;101789.46;;;10.94;80.28
37020;BME280;22932;52.442;16.896;2022-11-11T11:49:04;101796.20;;;10.96;80.08
37020;BME280;22932;52.442;16.896;2022-11-11T11:51:42;101800.18;;;10.98;80.10
37020;BME280;22932;52.442;16.896;2022-11-11T11:54:31;101807.20;;;11.00;79.95
37020;BME280;22932;52.442;16.896;2022-11-11T11:57:18;101806.31;;;11.03;80.03
37020;BME280;22932;52.442;16.896;2022-11-11T11:59:54;101805.70;;;11.07;80.00
37020;BME280;22932;52.442;16.896;2022-11-11T12:02:40;101810.52;;;11.10;79.84
37020;BME280;22932;52.442;16.896;2022-11-11T12:05:18;101814.59;;;11.13;79.85
37020;BME280;22932;52.442;16.896;2022-11-11T12:08:08;101807.33;;;11.17;79.60
37020;BME280;22932;52.442;16.896;2022-11-11T12:10:48;101807.75;;;11.18;79.36
37020;BME280;22932;52.442;16.896;2022-11-11T12:13:30;101806.00;;;11.20;79.07
37020;BME280;22932;52.442;16.896;2022-11-11T12:16:15;101806.20;;;11.19;78.77
37020;BME280;22932;52.442;16.896;2022-11-11T12:18:59;101805.83;;;11.20;78.48
37020;BME280;22932;52.442;16.896;2022-11-11T12:21:36;101800.52;;;11.21;78.54
37020;BME280;22932;52.442;16.896;2022-11-11T12:24:17;101795.20;;;11.22;78.63
37020;BME280;22932;52.442;16.896;2022-11-11T12:26:56;101800.67;;;11.24;78.56
37020;BME280;22932;52.442;16.896;2022-11-11T12:29:34;101804.38;;;11.25;78.41
37020;BME280;22932;52.442;16.896;2022-11-11T12:32:23;101806.73;;;11.25;78.29
37020;BME280;22932;52.442;16.896;2022-11-11T12:35:06;101808.16;;;11.25;78.28
37020;BME280;22932;52.442;16.896;2022-11-11T12:37:47;101811.12;;;11.24;78.17
37020;BME280;22932;52.442;16.896;2022-11-11T12:40:30;101807.73;;;11.24;77.85
37020;BME280;22932;52.442;16.896;2022-11-11T12:43:11;101804.49;;;11.23;77.95
37020;BME280;22932;52.442;16.896;2022-11-11T12:45:48;101799.83;;;11.23;77.90
37020;BME280;22932;52.442;16.896;2022-11-11T12:48:34;101799.09;;;11.23;77.95
37020;BME280;22932;52.442;16.896;2022-11-11T12:51:13;101798.23;;;11.23;77.82
37020;BME280;22932;52.442;16.896;2022-11-11T12:53:51;101799.69;;;11.20;77.51
37020;BME280;22932;52.442;16.896;2022-11-11T12:56:30;101805.04;;;11.18;77.53
37020;BME280;22932;52.442;16.896;2022-11-11T12:59:07;101807.40;;;11.18;77.74
37020;BME280;22932;52.442;16.896;2022-11-11T13:01:50;101810.43;;;11.18;77.72
37020;BME280;22932;52.442;16.896;2022-11-11T13:04:48;101811.81;;;11.19;77.83
37020;BME280;22932;52.442;16.896;2022-11-11T13:07:41;101812.14;;;11.20;77.91
37020;BME280;22932;52.442;16.896;2022-11-11T13:10:24;101814.52;;;11.19;77.58
37020;BME280;22932;52.442;16.896;2022-11-11T13:13:03;101816.51;;;11.17;77.42
37020;BME280;22932;52.442;16.896;2022-11-11T13:15:38;101816.20;;;11.16;77.72
37020;BME280;22932;52.442;16.896;2022-11-11T13:18:13;101817.23;;;11.17;77.76
37020;BME280;22932;52.442;16.896;2022-11-11T13:20:51;101818.73;;;11.16;77.66
37020;BME280;22932;52.442;16.896;2022-11-11T13:23:24;101820.27;;;11.14;77.62
37020;BME280;22932;52.442;16.896;2022-11-11T13:25:57;101823.05;;;11.14;77.77
37020;BME280;22932;52.442;16.896;2022-11-11T13:28:33;101826.11;;;11.13;77.74
37020;BME280;22932;52.442;16.896;2022-11-11T13:31:13;101824.52;;;11.13;77.69
37020;BME280;22932;52.442;16.896;2022-11-11T13:33:46;101825.44;;;11.13;77.69
37020;BME280;22932;52.442;16.896;2022-11-11T13:36:19;101827.04;;;11.13;77.74
37020;BME280;22932;52.442;16.896;2022-11-11T13:38:52;101826.89;;;11.13;77.81
37020;BME280;22932;52.442;16.896;2022-11-11T13:41:26;101825.96;;;11.13;77.78
37020;BME280;22932;52.442;16.896;2022-11-11T13:43:59;101826.05;;;11.12;77.63
37020;BME280;22932;52.442;16.896;2022-11-11T13:46:35;101826.84;;;11.11;77.74
37020;BME280;22932;52.442;16.896;2022-11-11T13:49:09;101824.33;;;11.11;77.85
37020;BME280;22932;52.442;16.896;2022-11-11T13:51:58;101823.71;;;11.09;77.80
37020;BME280;22932;52.442;16.896;2022-11-11T13:54:30;101818.95;;;11.08;77.86
37020;BME280;22932;52.442;16.896;2022-11-11T13:57:07;101817.79;;;11.06;77.90
37020;BME280;22932;52.442;16.896;2022-11-11T13:59:50;101821.95;;;11.04;77.98
37020;BME280;22932;52.442;16.896;2022-11-11T14:02:31;101820.17;;;11.03;78.10
37020;BME280;22932;52.442;16.896;2022-11-11T14:05:25;101822.67;;;11.01;78.03
37020;BME280;22932;52.442;16.896;2022-11-11T14:07:56;101825.43;;;11.00;78.18
37020;BME280;22932;52.442;16.896;2022-11-11T14:10:56;101824.37;;;11.00;78.24
37020;BME280;22932;52.442;16.896;2022-11-11T14:13:40;101828.23;;;10.99;78.33
37020;BME280;22932;52.442;16.896;2022-11-11T14:16:13;101823.84;;;10.97;78.31
37020;BME280;22932;52.442;16.896;2022-11-11T14:19:26;101826.30;;;10.96;78.37
37020;BME280;22932;52.442;16.896;2022-11-11T14:21:57;101828.66;;;10.93;78.30
37020;BME280;22932;52.442;16.896;2022-11-11T14:24:34;101829.35;;;10.91;78.42
37020;BME280;22932;52.442;16.896;2022-11-11T14:27:13;101832.08;;;10.85;78.17
37020;BME280;22932;52.442;16.896;2022-11-11T14:29:50;101829.41;;;10.82;78.32
37020;BME280;22932;52.442;16.896;2022-11-11T14:32:33;101831.70;;;10.78;78.36
37020;BME280;22932;52.442;16.896;2022-11-11T14:35:21;101830.52;;;10.74;78.46
37020;BME280;22932;52.442;16.896;2022-11-11T14:38:04;101830.71;;;10.71;78.55
37020;BME280;22932;52.442;16.896;2022-11-11T14:40:37;101834.75;;;10.67;78.58
37020;BME280;22932;52.442;16.896;2022-11-11T14:43:35;101832.70;;;10.63;78.61
37020;BME280;22932;52.442;16.896;2022-11-11T14:46:07;101833.95;;;10.58;78.69
37020;BME280;22932;52.442;16.896;2022-11-11T14:49:01;101830.16;;;10.55;78.79
37020;BME280;22932;52.442;16.896;2022-11-11T14:51:49;101836.35;;;10.52;78.85
37020;BME280;22932;52.442;16.896;2022-11-11T14:54:47;101843.05;;;10.49;78.90
37020;BME280;22932;52.442;16.896;2022-11-11T14:57:24;101852.98;;;10.46;79.00
37020;BME280;22932;52.442;16.896;2022-11-11T14:59:56;101848.95;;;10.41;79.07
37020;BME280;22932;52.442;16.896;2022-11-11T15:02:28;101851.33;;;10.38;79.17
37020;BME280;22932;52.442;16.896;2022-11-11T15:05:01;101848.30;;;10.35;79.15
37020;BME280;22932;52.442;16.896;2022-11-11T15:07:58;101851.86;;;10.33;79.18
37020;BME280;22932;52.442;16.896;2022-11-11T15:10:43;101852.62;;;10.30;79.30
37020;BME280;22932;52.442;16.896;2022-11-11T15:13:43;101852.76;;;10.27;79.31
37020;BME280;22932;52.442;16.896;2022-11-11T15:16:36;101854.30;;;10.26;79.39
37020;BME280;22932;52.442;16.896;2022-11-11T23:15:18;101980.89;;;7.51;85.23
37020;BME280;22932;52.442;16.896;2022-11-11T23:17:48;101980.89;;;7.51;85.10
37020;BME280;22932;52.442;16.896;2022-11-11T23:20:18;101980.86;;;7.52;85.03
37020;BME280;22932;52.442;16.896;2022-11-11T23:22:47;101980.34;;;7.51;85.05
37020;BME280;22932;52.442;16.896;2022-11-11T23:25:16;101978.30;;;7.53;85.09
37020;BME280;22932;52.442;16.896;2022-11-11T23:27:46;101977.55;;;7.54;85.04
37020;BME280;22932;52.442;16.896;2022-11-11T23:30:15;101976.07;;;7.54;84.91
37020;BME280;22932;52.442;16.896;2022-11-11T23:32:45;101979.11;;;7.54;84.96
37020;BME280;22932;52.442;16.896;2022-11-11T23:35:14;101977.29;;;7.55;85.06
37020;BME280;22932;52.442;16.896;2022-11-11T23:37:44;101979.05;;;7.56;85.04
37020;BME280;22932;52.442;16.896;2022-11-11T23:40:14;101980.02;;;7.54;84.83
37020;BME280;22932;52.442;16.896;2022-11-11T23:42:44;101983.09;;;7.54;84.85
37020;BME280;22932;52.442;16.896;2022-11-11T23:45:13;101986.30;;;7.54;84.92
37020;BME280;22932;52.442;16.896;2022-11-11T23:47:43;101982.31;;;7.55;84.99
37020;BME280;22932;52.442;16.896;2022-11-11T23:50:12;101980.98;;;7.56;84.93
37020;BME280;22932;52.442;16.896;2022-11-11T23:52:42;101977.00;;;7.57;85.08
37020;BME280;22932;52.442;16.896;2022-11-11T23:55:12;101974.99;;;7.57;84.88
37020;BME280;22932;52.442;16.896;2022-11-11T23:57:41;101979.31;;;7.57;84.96
